sensor_id;sensor_type;location;lat;lon;timestamp;P1;durP1;ratioP1;P2;durP2;ratioP2
71622;SDS011;59473;53.214;5.728;2023-02-01T00:01:18;28.90;;;6.33;;
71622;SDS011;59473;53.214;5.728;2023-02-01T00:03:43;33.93;;;7.40;;
71622;SDS011;59473;53.214;5.728;2023-02-01T00:06:08;24.17;;;6.13;;
71622;SDS011;59473;53.214;5.728;2023-02-01T00:08:33;33.13;;;7.03;;
71622;SDS011;59473;53.214;5.728;2023-02-01T00:11:04;36.80;;;7.97;;
71622;SDS011;59473;53.214;5.728;2023-02-01T00:13:33;27.73;;;7.00;;
71622;SDS011;59473;53.214;5.728;2023-02-01T00:16:09;27.98;;;6.65;;
71622;SDS011;59473;53.214;5.728;2023-02-01T00:18:34;31.98;;;7.82;;
71622;SDS011;59473;53.214;5.728;2023-02-01T00:21:00;25.93;;;6.57;;
71622;SDS011;59473;53.214;5.728;2023-02-01T00:23:25;30.13;;;6.90;;
71622;SDS011;59473;53.214;5.728;2023-02-01T00:25:50;30.75;;;5.93;;
71622;SDS011;59473;53.214;5.728;2023-02-01T00:28:16;24.03;;;7.20;;
71622;SDS011;59473;53.214;5.728;2023-02-01T00:30:41;32.00;;;6.90;;
71622;SDS011;59473;53.214;5.728;2023-02-01T00:33:06;31.03;;;6.07;;
71622;SDS011;59473;53.214;5.728;2023-02-01T00:35:33;33.47;;;6.30;;
71622;SDS011;59473;53.214;5.728;2023-02-01T00:37:58;28.60;;;6.17;;
71622;SDS011;59473;53.214;5.728;2023-02-01T00:40:24;34.70;;;8.05;;
71622;SDS011;59473;53.214;5.728;2023-02-01T00:42:49;34.00;;;7.70;;
71622;SDS011;59473;53.214;5.728;2023-02-01T00:45:14;30.60;;;6.90;;
71622;SDS011;59473;53.214;5.728;2023-02-01T00:47:40;26.80;;;7.17;;
71622;SDS011;59473;53.214;5.728;2023-02-01T00:50:05;22.80;;;6.23;;
71622;SDS011;59473;53.214;5.728;2023-02-01T00:52:30;33.47;;;8.37;;
71622;SDS011;59473;53.214;5.728;2023-02-01T00:54:56;42.67;;;7.47;;
71622;SDS011;59473;53.214;5.728;2023-02-01T00:57:21;29.17;;;8.20;;
71622;SDS011;59473;53.214;5.728;2023-02-01T00:59:46;38.20;;;7.27;;
71622;SDS011;59473;53.214;5.728;2023-02-01T01:02:11;46.67;;;7.20;;
71622;SDS011;59473;53.214;5.728;2023-02-01T01:04:39;36.22;;;7.85;;
71622;SDS011;59473;53.214;5.728;2023-02-01T01:07:04;37.23;;;8.10;;
71622;SDS011;59473;53.214;5.728;2023-02-01T01:09:29;35.50;;;6.73;;
71622;SDS011;59473;53.214;5.728;2023-02-01T01:11:54;30.03;;;6.60;;
71622;SDS011;59473;53.214;5.728;2023-02-01T01:14:20;39.97;;;8.83;;
71622;SDS011;59473;53.214;5.728;2023-02-01T01:16:45;33.80;;;6.90;;
71622;SDS011;59473;53.214;5.728;2023-02-01T01:19:10;22.77;;;5.50;;
71622;SDS011;59473;53.214;5.728;2023-02-01T01:21:36;33.50;;;7.10;;
71622;SDS011;59473;53.214;5.728;2023-02-01T01:24:01;33.07;;;7.13;;
71622;SDS011;59473;53.214;5.728;2023-02-01T01:26:28;33.67;;;7.97;;
71622;SDS011;59473;53.214;5.728;2023-02-01T01:28:54;31.77;;;7.10;;
71622;SDS011;59473;53.214;5.728;2023-02-01T01:31:20;35.30;;;7.28;;
71622;SDS011;59473;53.214;5.728;2023-02-01T01:33:47;35.13;;;7.37;;
71622;SDS011;59473;53.214;5.728;2023-02-01T01:36:12;43.13;;;9.07;;
71622;SDS011;59473;53.214;5.728;2023-02-01T01:38:39;33.53;;;6.37;;
71622;SDS011;59473;53.214;5.728;2023-02-01T01:41:04;31.17;;;7.43;;
71622;SDS011;59473;53.214;5.728;2023-02-01T01:46:22;41.80;;;8.43;;
71622;SDS011;59473;53.214;5.728;2023-02-01T01:48:48;33.45;;;7.40;;
71622;SDS011;59473;53.214;5.728;2023-02-01T01:51:15;32.30;;;7.07;;
71622;SDS011;59473;53.214;5.728;2023-02-01T01:53:43;31.08;;;7.28;;
71622;SDS011;59473;53.214;5.728;2023-02-01T01:56:10;22.37;;;6.90;;
71622;SDS011;59473;53.214;5.728;2023-02-01T01:58:36;36.05;;;9.45;;
71622;SDS011;59473;53.214;5.728;2023-02-01T02:01:01;31.70;;;7.72;;
71622;SDS011;59473;53.214;5.728;2023-02-01T02:03:27;38.20;;;7.88;;
71622;SDS011;59473;53.214;5.728;2023-02-01T02:05:57;28.65;;;7.38;;
71622;SDS011;59473;53.214;5.728;2023-02-01T02:08:23;37.10;;;7.20;;
71622;SDS011;59473;53.214;5.728;2023-02-01T02:10:49;34.28;;;8.20;;
71622;SDS011;59473;53.214;5.728;2023-02-01T02:13:27;32.67;;;7.05;;
71622;SDS011;59473;53.214;5.728;2023-02-01T02:15:59;27.37;;;6.10;;
71622;SDS011;59473;53.214;5.728;2023-02-01T02:18:30;32.15;;;6.15;;
71622;SDS011;59473;53.214;5.728;2023-02-01T02:26:03;27.13;;;5.93;;
71622;SDS011;59473;53.214;5.728;2023-02-01T02:31:27;20.50;;;5.47;;
71622;SDS011;59473;53.214;5.728;2023-02-01T02:42:10;35.70;;;7.43;;
71622;SDS011;59473;53.214;5.728;2023-02-01T02:47:45;21.90;;;5.27;;
71622;SDS011;59473;53.214;5.728;2023-02-01T02:53:17;39.22;;;7.03;;
71622;SDS011;59473;53.214;5.728;2023-02-01T02:56:02;30.05;;;5.80;;
71622;SDS011;59473;53.214;5.728;2023-02-01T02:58:47;21.20;;;4.90;;
71622;SDS011;59473;53.214;5.728;2023-02-01T03:01:31;24.13;;;6.50;;
71622;SDS011;59473;53.214;5.728;2023-02-01T03:04:15;30.58;;;8.43;;
71622;SDS011;59473;53.214;5.728;2023-02-01T03:06:42;29.55;;;5.78;;
71622;SDS011;59473;53.214;5.728;2023-02-01T03:09:10;27.20;;;6.97;;
71622;SDS011;59473;53.214;5.728;2023-02-01T03:11:38;27.45;;;6.00;;
71622;SDS011;59473;53.214;5.728;2023-02-01T03:14:22;36.28;;;7.75;;
71622;SDS011;59473;53.214;5.728;2023-02-01T03:16:50;33.78;;;6.40;;
71622;SDS011;59473;53.214;5.728;2023-02-01T03:21:50;26.03;;;5.47;;
71622;SDS011;59473;53.214;5.728;2023-02-01T03:24:17;30.23;;;7.57;;
71622;SDS011;59473;53.214;5.728;2023-02-01T03:26:45;43.70;;;8.80;;
71622;SDS011;59473;53.214;5.728;2023-02-01T03:29:27;32.90;;;8.20;;
71622;SDS011;59473;53.214;5.728;2023-02-01T03:31:54;31.20;;;7.88;;
71622;SDS011;59473;53.214;5.728;2023-02-01T03:34:19;34.93;;;8.07;;
71622;SDS011;59473;53.214;5.728;2023-02-01T03:39:14;49.13;;;8.70;;
71622;SDS011;59473;53.214;5.728;2023-02-01T03:41:51;39.03;;;8.47;;
71622;SDS011;59473;53.214;5.728;2023-02-01T03:44:22;45.70;;;8.80;;
71622;SDS011;59473;53.214;5.728;2023-02-01T03:46:52;37.33;;;8.43;;
71622;SDS011;59473;53.214;5.728;2023-02-01T03:49:29;29.77;;;7.00;;
71622;SDS011;59473;53.214;5.728;2023-02-01T03:51:56;32.15;;;8.52;;
71622;SDS011;59473;53.214;5.728;2023-02-01T03:54:23;41.60;;;8.37;;
71622;SDS011;59473;53.214;5.728;2023-02-01T03:56:48;38.55;;;7.88;;
71622;SDS011;59473;53.214;5.728;2023-02-01T03:59:15;41.67;;;8.25;;
71622;SDS011;59473;53.214;5.728;2023-02-01T04:01:40;41.90;;;10.20;;
71622;SDS011;59473;53.214;5.728;2023-02-01T04:04:06;36.63;;;9.10;;
71622;SDS011;59473;53.214;5.728;2023-02-01T04:06:31;37.53;;;7.93;;
71622;SDS011;59473;53.214;5.728;2023-02-01T04:08:56;31.73;;;8.70;;
71622;SDS011;59473;53.214;5.728;2023-02-01T04:11:21;37.17;;;8.80;;
71622;SDS011;59473;53.214;5.728;2023-02-01T04:13:47;33.93;;;8.10;;
71622;SDS011;59473;53.214;5.728;2023-02-01T04:16:12;37.43;;;8.47;;
71622;SDS011;59473;53.214;5.728;2023-02-01T04:18:37;42.67;;;9.10;;
71622;SDS011;59473;53.214;5.728;2023-02-01T04:21:03;28.73;;;7.53;;
71622;SDS011;59473;53.214;5.728;2023-02-01T04:23:28;36.23;;;8.17;;
71622;SDS011;59473;53.214;5.728;2023-02-01T04:25:58;31.42;;;8.27;;
71622;SDS011;59473;53.214;5.728;2023-02-01T04:28:23;30.77;;;7.88;;
71622;SDS011;59473;53.214;5.728;2023-02-01T04:30:48;38.60;;;8.50;;
71622;SDS011;59473;53.214;5.728;2023-02-01T04:33:13;35.57;;;7.93;;
71622;SDS011;59473;53.214;5.728;2023-02-01T04:35:39;40.80;;;8.67;;
71622;SDS011;59473;53.214;5.728;2023-02-01T04:38:04;36.67;;;8.73;;
71622;SDS011;59473;53.214;5.728;2023-02-01T04:40:29;35.07;;;8.00;;
71622;SDS011;59473;53.214;5.728;2023-02-01T04:42:55;41.37;;;9.60;;
71622;SDS011;59473;53.214;5.728;2023-02-01T04:45:20;33.13;;;8.57;;
71622;SDS011;59473;53.214;5.728;2023-02-01T04:47:45;44.17;;;8.67;;
71622;SDS011;59473;53.214;5.728;2023-02-01T04:50:10;43.10;;;10.20;;
71622;SDS011;59473;53.214;5.728;2023-02-01T04:52:36;18.83;;;6.13;;
71622;SDS011;59473;53.214;5.728;2023-02-01T04:55:01;33.40;;;8.03;;
71622;SDS011;59473;53.214;5.728;2023-02-01T04:57:27;34.80;;;8.48;;
71622;SDS011;59473;53.214;5.728;2023-02-01T04:59:53;36.17;;;7.57;;
71622;SDS011;59473;53.214;5.728;2023-02-01T05:02:18;34.90;;;8.37;;
71622;SDS011;59473;53.214;5.728;2023-02-01T05:04:43;34.43;;;8.50;;
71622;SDS011;59473;53.214;5.728;2023-02-01T05:07:08;31.93;;;7.17;;
71622;SDS011;59473;53.214;5.728;2023-02-01T05:09:34;24.13;;;6.20;;
71622;SDS011;59473;53.214;5.728;2023-02-01T05:11:59;42.83;;;8.73;;
71622;SDS011;59473;53.214;5.728;2023-02-01T05:14:43;38.03;;;8.40;;
71622;SDS011;59473;53.214;5.728;2023-02-01T05:17:08;39.77;;;9.10;;
71622;SDS011;59473;53.214;5.728;2023-02-01T05:19:33;41.10;;;8.77;;
71622;SDS011;59473;53.214;5.728;2023-02-01T05:21:58;34.97;;;8.00;;
71622;SDS011;59473;53.214;5.728;2023-02-01T05:24:24;38.73;;;10.60;;
71622;SDS011;59473;53.214;5.728;2023-02-01T05:26:49;37.13;;;9.43;;
71622;SDS011;59473;53.214;5.728;2023-02-01T05:29:15;44.23;;;10.57;;
71622;SDS011;59473;53.214;5.728;2023-02-01T05:31:41;36.58;;;9.77;;
71622;SDS011;59473;53.214;5.728;2023-02-01T05:34:06;34.78;;;8.50;;
71622;SDS011;59473;53.214;5.728;2023-02-01T05:36:31;34.30;;;8.63;;
71622;SDS011;59473;53.214;5.728;2023-02-01T05:38:57;35.57;;;8.10;;
71622;SDS011;59473;53.214;5.728;2023-02-01T05:41:22;37.13;;;9.40;;
71622;SDS011;59473;53.214;5.728;2023-02-01T05:43:47;48.23;;;9.23;;
71622;SDS011;59473;53.214;5.728;2023-02-01T05:46:13;34.53;;;8.30;;
71622;SDS011;59473;53.214;5.728;2023-02-01T05:48:41;43.33;;;8.50;;
71622;SDS011;59473;53.214;5.728;2023-02-01T05:51:07;33.95;;;8.60;;
71622;SDS011;59473;53.214;5.728;2023-02-01T05:53:32;38.70;;;8.40;;
71622;SDS011;59473;53.214;5.728;2023-02-01T05:55:57;37.17;;;8.97;;
71622;SDS011;59473;53.214;5.728;2023-02-01T05:58:23;42.00;;;10.07;;
71622;SDS011;59473;53.214;5.728;2023-02-01T06:00:48;46.63;;;9.57;;
71622;SDS011;59473;53.214;5.728;2023-02-01T06:03:13;33.60;;;8.67;;
71622;SDS011;59473;53.214;5.728;2023-02-01T06:05:38;39.10;;;8.40;;
71622;SDS011;59473;53.214;5.728;2023-02-01T06:08:04;26.53;;;6.73;;
71622;SDS011;59473;53.214;5.728;2023-02-01T06:10:29;26.50;;;7.03;;
71622;SDS011;59473;53.214;5.728;2023-02-01T06:12:54;32.40;;;7.90;;
71622;SDS011;59473;53.214;5.728;2023-02-01T06:15:19;30.83;;;6.60;;
71622;SDS011;59473;53.214;5.728;2023-02-01T06:17:45;37.47;;;8.02;;
71622;SDS011;59473;53.214;5.728;2023-02-01T06:20:11;37.30;;;7.60;;
71622;SDS011;59473;53.214;5.728;2023-02-01T06:22:37;38.45;;;8.35;;
71622;SDS011;59473;53.214;5.728;2023-02-01T06:25:03;34.00;;;8.47;;
71622;SDS011;59473;53.214;5.728;2023-02-01T06:27:28;37.33;;;8.60;;
71622;SDS011;59473;53.214;5.728;2023-02-01T06:29:53;42.63;;;9.10;;
71622;SDS011;59473;53.214;5.728;2023-02-01T06:32:20;34.60;;;8.33;;
71622;SDS011;59473;53.214;5.728;2023-02-01T06:34:45;42.17;;;9.15;;
71622;SDS011;59473;53.214;5.728;2023-02-01T06:37:10;35.30;;;8.10;;
71622;SDS011;59473;53.214;5.728;2023-02-01T06:39:36;38.77;;;7.77;;
71622;SDS011;59473;53.214;5.728;2023-02-01T06:42:01;39.07;;;8.50;;
71622;SDS011;59473;53.214;5.728;2023-02-01T06:44:26;43.13;;;8.67;;
71622;SDS011;59473;53.214;5.728;2023-02-01T06:46:52;36.27;;;9.40;;
71622;SDS011;59473;53.214;5.728;2023-02-01T06:49:17;28.63;;;6.87;;
71622;SDS011;59473;53.214;5.728;2023-02-01T06:51:44;34.55;;;7.95;;
71622;SDS011;59473;53.214;5.728;2023-02-01T06:54:09;24.63;;;6.80;;
71622;SDS011;59473;53.214;5.728;2023-02-01T06:56:35;38.83;;;7.80;;
71622;SDS011;59473;53.214;5.728;2023-02-01T06:59:02;33.13;;;8.33;;
71622;SDS011;59473;53.214;5.728;2023-02-01T07:01:28;35.22;;;7.60;;
71622;SDS011;59473;53.214;5.728;2023-02-01T07:03:53;24.30;;;6.43;;
71622;SDS011;59473;53.214;5.728;2023-02-01T07:06:18;30.07;;;8.57;;
71622;SDS011;59473;53.214;5.728;2023-02-01T07:08:43;40.23;;;9.03;;
71622;SDS011;59473;53.214;5.728;2023-02-01T07:11:10;40.17;;;9.53;;
71622;SDS011;59473;53.214;5.728;2023-02-01T07:13:36;39.55;;;8.48;;
71622;SDS011;59473;53.214;5.728;2023-02-01T07:16:02;40.23;;;8.97;;
71622;SDS011;59473;53.214;5.728;2023-02-01T07:18:28;42.00;;;8.43;;
71622;SDS011;59473;53.214;5.728;2023-02-01T07:20:54;33.95;;;7.10;;
71622;SDS011;59473;53.214;5.728;2023-02-01T07:23:19;34.83;;;8.03;;
71622;SDS011;59473;53.214;5.728;2023-02-01T07:25:45;32.67;;;8.13;;
71622;SDS011;59473;53.214;5.728;2023-02-01T07:28:10;36.50;;;7.18;;
71622;SDS011;59473;53.214;5.728;2023-02-01T07:30:35;26.97;;;7.30;;
71622;SDS011;59473;53.214;5.728;2023-02-01T07:33:01;32.33;;;7.17;;
71622;SDS011;59473;53.214;5.728;2023-02-01T07:35:27;38.07;;;8.87;;
71622;SDS011;59473;53.214;5.728;2023-02-01T07:37:52;36.28;;;8.07;;
71622;SDS011;59473;53.214;5.728;2023-02-01T07:40:17;34.70;;;8.37;;
71622;SDS011;59473;53.214;5.728;2023-02-01T07:42:43;41.73;;;8.77;;
71622;SDS011;59473;53.214;5.728;2023-02-01T07:45:08;36.50;;;7.27;;
71622;SDS011;59473;53.214;5.728;2023-02-01T07:47:34;46.67;;;9.17;;
71622;SDS011;59473;53.214;5.728;2023-02-01T07:49:59;34.50;;;7.87;;
71622;SDS011;59473;53.214;5.728;2023-02-01T07:52:24;46.30;;;8.43;;
71622;SDS011;59473;53.214;5.728;2023-02-01T07:54:52;34.75;;;7.70;;
71622;SDS011;59473;53.214;5.728;2023-02-01T07:57:17;46.33;;;8.70;;
71622;SDS011;59473;53.214;5.728;2023-02-01T07:59:43;35.73;;;8.47;;
71622;SDS011;59473;53.214;5.728;2023-02-01T08:02:26;37.78;;;8.35;;
71622;SDS011;59473;53.214;5.728;2023-02-01T08:04:52;33.67;;;7.60;;
71622;SDS011;59473;53.214;5.728;2023-02-01T08:07:17;30.77;;;6.97;;
71622;SDS011;59473;53.214;5.728;2023-02-01T08:09:42;34.97;;;7.87;;
71622;SDS011;59473;53.214;5.728;2023-02-01T08:12:07;27.80;;;5.60;;
71622;SDS011;59473;53.214;5.728;2023-02-01T08:14:33;40.60;;;7.27;;
71622;SDS011;59473;53.214;5.728;2023-02-01T08:16:58;27.87;;;5.47;;
71622;SDS011;59473;53.214;5.728;2023-02-01T08:19:23;26.03;;;6.67;;
71622;SDS011;59473;53.214;5.728;2023-02-01T08:21:48;21.30;;;5.43;;
71622;SDS011;59473;53.214;5.728;2023-02-01T08:24:13;38.40;;;6.90;;
71622;SDS011;59473;53.214;5.728;2023-02-01T08:26:39;30.97;;;5.90;;
71622;SDS011;59473;53.214;5.728;2023-02-01T08:29:05;26.33;;;5.50;;
71622;SDS011;59473;53.214;5.728;2023-02-01T08:31:31;27.20;;;6.55;;
71622;SDS011;59473;53.214;5.728;2023-02-01T08:33:57;23.10;;;5.70;;
71622;SDS011;59473;53.214;5.728;2023-02-01T08:36:23;30.17;;;6.40;;
71622;SDS011;59473;53.214;5.728;2023-02-01T08:38:49;26.83;;;6.20;;
71622;SDS011;59473;53.214;5.728;2023-02-01T08:41:16;27.02;;;6.82;;
71622;SDS011;59473;53.214;5.728;2023-02-01T08:43:42;23.85;;;6.68;;
71622;SDS011;59473;53.214;5.728;2023-02-01T08:46:07;26.50;;;6.10;;
71622;SDS011;59473;53.214;5.728;2023-02-01T08:48:33;27.37;;;5.70;;
71622;SDS011;59473;53.214;5.728;2023-02-01T08:51:06;31.77;;;6.35;;
71622;SDS011;59473;53.214;5.728;2023-02-01T08:53:32;21.73;;;4.63;;
71622;SDS011;59473;53.214;5.728;2023-02-01T08:55:57;19.77;;;5.77;;
71622;SDS011;59473;53.214;5.728;2023-02-01T08:58:22;19.50;;;5.40;;
71622;SDS011;59473;53.214;5.728;2023-02-01T09:00:48;24.57;;;7.10;;
71622;SDS011;59473;53.214;5.728;2023-02-01T09:03:14;30.83;;;6.55;;
71622;SDS011;59473;53.214;5.728;2023-02-01T09:05:39;29.00;;;6.57;;
71622;SDS011;59473;53.214;5.728;2023-02-01T09:08:04;22.90;;;6.40;;
71622;SDS011;59473;53.214;5.728;2023-02-01T09:10:29;29.20;;;4.87;;
71622;SDS011;59473;53.214;5.728;2023-02-01T09:12:55;22.10;;;6.07;;
71622;SDS011;59473;53.214;5.728;2023-02-01T09:15:20;28.77;;;7.20;;
71622;SDS011;59473;53.214;5.728;2023-02-01T09:17:45;26.33;;;5.77;;
71622;SDS011;59473;53.214;5.728;2023-02-01T09:20:11;23.30;;;5.07;;
71622;SDS011;59473;53.214;5.728;2023-02-01T09:22:36;19.65;;;5.05;;
71622;SDS011;59473;53.214;5.728;2023-02-01T09:25:01;19.23;;;4.97;;
71622;SDS011;59473;53.214;5.728;2023-02-01T09:27:26;27.30;;;4.47;;
71622;SDS011;59473;53.214;5.728;2023-02-01T09:29:52;16.70;;;4.67;;
71622;SDS011;59473;53.214;5.728;2023-02-01T09:32:21;21.53;;;5.47;;
71622;SDS011;59473;53.214;5.728;2023-02-01T09:34:47;28.52;;;5.18;;
71622;SDS011;59473;53.214;5.728;2023-02-01T09:37:12;18.70;;;4.20;;
71622;SDS011;59473;53.214;5.728;2023-02-01T09:39:37;23.77;;;6.13;;
71622;SDS011;59473;53.214;5.728;2023-02-01T09:47:09;23.38;;;6.05;;
71622;SDS011;59473;53.214;5.728;2023-02-01T09:49:37;20.93;;;5.00;;
71622;SDS011;59473;53.214;5.728;2023-02-01T09:52:07;23.38;;;5.38;;
71622;SDS011;59473;53.214;5.728;2023-02-01T09:54:46;30.08;;;5.10;;
71622;SDS011;59473;53.214;5.728;2023-02-01T09:57:15;26.33;;;4.63;;
71622;SDS011;59473;53.214;5.728;2023-02-01T09:59:43;27.08;;;4.95;;
71622;SDS011;59473;53.214;5.728;2023-02-01T10:02:20;26.50;;;5.70;;
71622;SDS011;59473;53.214;5.728;2023-02-01T10:04:46;27.70;;;6.10;;
71622;SDS011;59473;53.214;5.728;2023-02-01T10:20:23;24.23;;;5.78;;
71622;SDS011;59473;53.214;5.728;2023-02-01T10:22:56;20.38;;;5.13;;
71622;SDS011;59473;53.214;5.728;2023-02-01T10:25:32;23.47;;;5.47;;
71622;SDS011;59473;53.214;5.728;2023-02-01T10:28:02;31.90;;;6.57;;
71622;SDS011;59473;53.214;5.728;2023-02-01T10:30:35;23.02;;;6.05;;
71622;SDS011;59473;53.214;5.728;2023-02-01T10:33:14;32.42;;;6.60;;
71622;SDS011;59473;53.214;5.728;2023-02-01T10:35:39;22.33;;;5.65;;
71622;SDS011;59473;53.214;5.728;2023-02-01T10:38:08;29.43;;;6.57;;
71622;SDS011;59473;53.214;5.728;2023-02-01T10:40:37;31.90;;;6.72;;
71622;SDS011;59473;53.214;5.728;2023-02-01T10:43:02;27.47;;;6.63;;
71622;SDS011;59473;53.214;5.728;2023-02-01T10:45:28;28.27;;;5.93;;
71622;SDS011;59473;53.214;5.728;2023-02-01T10:47:54;28.33;;;6.43;;
71622;SDS011;59473;53.214;5.728;2023-02-01T10:50:34;29.33;;;6.70;;
71622;SDS011;59473;53.214;5.728;2023-02-01T10:53:44;28.42;;;6.78;;
71622;SDS011;59473;53.214;5.728;2023-02-01T10:55:51;26.83;;;6.63;;
71622;SDS011;59473;53.214;5.728;2023-02-01T10:58:25;30.92;;;7.80;;
71622;SDS011;59473;53.214;5.728;2023-02-01T11:00:58;38.83;;;8.20;;
71622;SDS011;59473;53.214;5.728;2023-02-01T11:03:44;34.03;;;8.02;;
71622;SDS011;59473;53.214;5.728;2023-02-01T11:16:52;30.13;;;6.95;;
71622;SDS011;59473;53.214;5.728;2023-02-01T11:19:18;30.35;;;7.38;;
71622;SDS011;59473;53.214;5.728;2023-02-01T11:21:43;27.70;;;8.00;;
71622;SDS011;59473;53.214;5.728;2023-02-01T11:24:25;36.65;;;8.50;;
71622;SDS011;59473;53.214;5.728;2023-02-01T11:26:53;33.93;;;8.30;;
71622;SDS011;59473;53.214;5.728;2023-02-01T11:29:19;37.30;;;7.75;;
71622;SDS011;59473;53.214;5.728;2023-02-01T11:31:48;33.40;;;8.77;;
71622;SDS011;59473;53.214;5.728;2023-02-01T11:34:17;29.83;;;7.23;;
71622;SDS011;59473;53.214;5.728;2023-02-01T11:36:45;22.85;;;7.10;;
71622;SDS011;59473;53.214;5.728;2023-02-01T11:42:01;39.42;;;9.43;;
71622;SDS011;59473;53.214;5.728;2023-02-01T11:44:33;41.77;;;9.17;;
71622;SDS011;59473;53.214;5.728;2023-02-01T11:47:20;33.95;;;8.45;;
71622;SDS011;59473;53.214;5.728;2023-02-01T11:49:44;34.92;;;8.25;;
71622;SDS011;59473;53.214;5.728;2023-02-01T11:52:12;42.67;;;9.67;;
71622;SDS011;59473;53.214;5.728;2023-02-01T12:04:56;26.30;;;6.80;;
71622;SDS011;59473;53.214;5.728;2023-02-01T12:07:27;42.20;;;7.05;;
71622;SDS011;59473;53.214;5.728;2023-02-01T12:10:01;45.88;;;8.68;;
71622;SDS011;59473;53.214;5.728;2023-02-01T12:12:38;42.45;;;8.60;;
71622;SDS011;59473;53.214;5.728;2023-02-01T12:17:52;44.90;;;10.63;;
71622;SDS011;59473;53.214;5.728;2023-02-01T12:39:04;43.55;;;8.25;;
71622;SDS011;59473;53.214;5.728;2023-02-01T12:49:30;44.63;;;9.10;;
71622;SDS011;59473;53.214;5.728;2023-02-01T12:51:59;50.10;;;10.53;;
71622;SDS011;59473;53.214;5.728;2023-02-01T12:56:55;48.33;;;9.80;;
71622;SDS011;59473;53.214;5.728;2023-02-01T12:59:25;48.17;;;8.32;;
71622;SDS011;59473;53.214;5.728;2023-02-01T13:01:55;54.25;;;10.43;;
71622;SDS011;59473;53.214;5.728;2023-02-01T13:04:25;47.70;;;9.50;;
71622;SDS011;59473;53.214;5.728;2023-02-01T13:06:52;40.50;;;7.80;;
71622;SDS011;59473;53.214;5.728;2023-02-01T13:09:29;47.72;;;8.93;;
71622;SDS011;59473;53.214;5.728;2023-02-01T13:11:59;49.15;;;8.77;;
71622;SDS011;59473;53.214;5.728;2023-02-01T13:14:33;33.78;;;7.10;;
71622;SDS011;59473;53.214;5.728;2023-02-01T13:19:48;48.03;;;8.80;;
71622;SDS011;59473;53.214;5.728;2023-02-01T13:22:17;63.17;;;10.15;;
71622;SDS011;59473;53.214;5.728;2023-02-01T13:24:52;46.20;;;8.25;;
71622;SDS011;59473;53.214;5.728;2023-02-01T13:27:18;46.45;;;9.02;;
71622;SDS011;59473;53.214;5.728;2023-02-01T13:32:39;49.60;;;8.87;;
71622;SDS011;59473;53.214;5.728;2023-02-01T13:43:46;46.28;;;9.30;;
71622;SDS011;59473;53.214;5.728;2023-02-01T13:45:53;30.00;;;6.73;;
71622;SDS011;59473;53.214;5.728;2023-02-01T13:48:24;40.88;;;9.60;;
71622;SDS011;59473;53.214;5.728;2023-02-01T13:50:52;44.00;;;8.63;;
71622;SDS011;59473;53.214;5.728;2023-02-01T13:53:19;41.65;;;8.68;;
71622;SDS011;59473;53.214;5.728;2023-02-01T13:55:47;36.28;;;8.02;;
71622;SDS011;59473;53.214;5.728;2023-02-01T13:58:38;49.10;;;10.23;;
71622;SDS011;59473;53.214;5.728;2023-02-01T14:03:54;48.33;;;10.50;;
71622;SDS011;59473;53.214;5.728;2023-02-01T14:09:05;55.72;;;13.18;;
71622;SDS011;59473;53.214;5.728;2023-02-01T14:14:07;39.08;;;9.00;;
71622;SDS011;59473;53.214;5.728;2023-02-01T14:21:51;53.47;;;10.23;;
71622;SDS011;59473;53.214;5.728;2023-02-01T14:24:24;51.25;;;12.13;;
71622;SDS011;59473;53.214;5.728;2023-02-01T14:26:53;51.67;;;11.67;;
71622;SDS011;59473;53.214;5.728;2023-02-01T14:31:52;50.75;;;11.52;;
71622;SDS011;59473;53.214;5.728;2023-02-01T14:37:31;52.38;;;12.07;;
71622;SDS011;59473;53.214;5.728;2023-02-01T14:40:01;54.13;;;12.17;;
71622;SDS011;59473;53.214;5.728;2023-02-01T14:42:38;45.85;;;10.55;;
71622;SDS011;59473;53.214;5.728;2023-02-01T14:47:47;47.63;;;10.85;;
71622;SDS011;59473;53.214;5.728;2023-02-01T14:58:05;46.90;;;11.70;;
71622;SDS011;59473;53.214;5.728;2023-02-01T15:00:31;45.95;;;9.95;;
71622;SDS011;59473;53.214;5.728;2023-02-01T15:03:15;50.72;;;11.73;;
71622;SDS011;59473;53.214;5.728;2023-02-01T15:05:41;48.27;;;9.67;;
71622;SDS011;59473;53.214;5.728;2023-02-01T15:08:16;44.50;;;10.27;;
71622;SDS011;59473;53.214;5.728;2023-02-01T15:10:44;42.90;;;10.95;;
71622;SDS011;59473;53.214;5.728;2023-02-01T15:13:27;45.20;;;9.23;;
71622;SDS011;59473;53.214;5.728;2023-02-01T15:16:02;47.97;;;10.50;;
71622;SDS011;59473;53.214;5.728;2023-02-01T15:18:28;44.42;;;10.48;;
71622;SDS011;59473;53.214;5.728;2023-02-01T15:20:57;46.87;;;10.33;;
71622;SDS011;59473;53.214;5.728;2023-02-01T15:23:22;42.83;;;10.95;;
71622;SDS011;59473;53.214;5.728;2023-02-01T15:25:48;44.93;;;10.10;;
71622;SDS011;59473;53.214;5.728;2023-02-01T15:28:14;44.37;;;9.57;;
71622;SDS011;59473;53.214;5.728;2023-02-01T15:30:40;45.75;;;11.38;;
71622;SDS011;59473;53.214;5.728;2023-02-01T15:33:15;43.47;;;10.27;;
71622;SDS011;59473;53.214;5.728;2023-02-01T15:35:42;47.60;;;10.45;;
71622;SDS011;59473;53.214;5.728;2023-02-01T15:38:21;37.17;;;8.90;;
71622;SDS011;59473;53.214;5.728;2023-02-01T15:41:47;43.90;;;10.38;;
71622;SDS011;59473;53.214;5.728;2023-02-01T15:43:42;37.15;;;8.30;;
71622;SDS011;59473;53.214;5.728;2023-02-01T15:46:09;37.70;;;8.87;;
71622;SDS011;59473;53.214;5.728;2023-02-01T15:48:42;49.72;;;9.50;;
71622;SDS011;59473;53.214;5.728;2023-02-01T15:51:12;36.53;;;9.32;;
71622;SDS011;59473;53.214;5.728;2023-02-01T15:53:37;44.53;;;9.05;;
71622;SDS011;59473;53.214;5.728;2023-02-01T15:56:03;39.17;;;10.23;;
71622;SDS011;59473;53.214;5.728;2023-02-01T15:58:29;43.10;;;10.27;;
71622;SDS011;59473;53.214;5.728;2023-02-01T16:00:57;46.47;;;8.30;;
71622;SDS011;59473;53.214;5.728;2023-02-01T16:03:27;45.22;;;9.65;;
71622;SDS011;59473;53.214;5.728;2023-02-01T16:05:57;45.10;;;11.15;;
71622;SDS011;59473;53.214;5.728;2023-02-01T16:08:24;34.75;;;7.97;;
71622;SDS011;59473;53.214;5.728;2023-02-01T16:10:51;39.58;;;8.43;;
71622;SDS011;59473;53.214;5.728;2023-02-01T16:13:17;40.43;;;8.33;;
71622;SDS011;59473;53.214;5.728;2023-02-01T16:15:43;49.22;;;10.50;;
71622;SDS011;59473;53.214;5.728;2023-02-01T16:18:08;46.33;;;9.67;;
71622;SDS011;59473;53.214;5.728;2023-02-01T16:20:35;38.28;;;7.50;;
71622;SDS011;59473;53.214;5.728;2023-02-01T16:23:03;47.13;;;9.35;;
71622;SDS011;59473;53.214;5.728;2023-02-01T16:25:29;46.10;;;8.37;;
71622;SDS011;59473;53.214;5.728;2023-02-01T16:27:54;38.25;;;8.60;;
71622;SDS011;59473;53.214;5.728;2023-02-01T16:30:19;44.47;;;8.93;;
71622;SDS011;59473;53.214;5.728;2023-02-01T16:32:51;38.20;;;9.57;;
71622;SDS011;59473;53.214;5.728;2023-02-01T16:35:30;43.53;;;8.98;;
71622;SDS011;59473;53.214;5.728;2023-02-01T16:38:05;40.20;;;9.40;;
71622;SDS011;59473;53.214;5.728;2023-02-01T16:40:37;40.40;;;9.80;;
71622;SDS011;59473;53.214;5.728;2023-02-01T16:43:05;39.10;;;8.67;;
71622;SDS011;59473;53.214;5.728;2023-02-01T16:45:33;34.35;;;8.23;;
71622;SDS011;59473;53.214;5.728;2023-02-01T16:47:58;38.20;;;8.80;;
71622;SDS011;59473;53.214;5.728;2023-02-01T16:50:24;39.50;;;9.10;;
71622;SDS011;59473;53.214;5.728;2023-02-01T16:52:51;38.03;;;9.27;;
71622;SDS011;59473;53.214;5.728;2023-02-01T16:55:17;39.00;;;9.30;;
71622;SDS011;59473;53.214;5.728;2023-02-01T16:57:43;41.97;;;9.70;;
71622;SDS011;59473;53.214;5.728;2023-02-01T17:00:09;32.93;;;8.13;;
71622;SDS011;59473;53.214;5.728;2023-02-01T17:02:34;38.50;;;9.60;;
71622;SDS011;59473;53.214;5.728;2023-02-01T17:04:59;41.73;;;8.83;;